createdAt,value
2018-02-05T00:00:28.983Z,100959.55
2018-02-05T00:02:56.471Z,100960.78
2018-02-05T00:05:23.936Z,100969.58
2018-02-05T00:07:51.414Z,100969.09
2018-02-05T00:10:18.878Z,100972.31
2018-02-05T00:12:46.370Z,100972.31
2018-02-05T00:15:13.834Z,100970.38
2018-02-05T00:17:41.402Z,100971.89
2018-02-05T00:20:08.867Z,100976.91
2018-02-05T00:22:36.361Z,100976.14
2018-02-05T00:25:03.839Z,100974.91
2018-02-05T00:27:31.343Z,100970.91
2018-02-05T00:29:58.807Z,100966.25
2018-02-05T00:32:26.299Z,100969.41
2018-02-05T00:34:53.771Z,100970.56
2018-02-05T00:37:21.246Z,100969.70
2018-02-05T00:39:48.726Z,100973.00
2018-02-05T00:42:16.187Z,100980.73
2018-02-05T00:44:43.674Z,100967.52
2018-02-05T00:47:11.147Z,100981.56
2018-02-05T00:49:38.627Z,100983.21
2018-02-05T00:52:06.107Z,100978.31
2018-02-05T00:54:33.590Z,100982.31
2018-02-05T00:57:01.080Z,100983.09
2018-02-05T00:59:28.567Z,100972.76
2018-02-05T01:01:56.030Z,100972.63
2018-02-05T01:04:23.525Z,100975.17
2018-02-05T01:06:50.999Z,100980.08
2018-02-05T01:09:18.492Z,100973.09
2018-02-05T01:11:45.959Z,100972.26
2018-02-05T01:14:13.447Z,100985.41
2018-02-05T01:16:40.924Z,100979.83
2018-02-05T01:19:08.415Z,100986.41
2018-02-05T01:21:35.882Z,100986.41
2018-02-05T01:24:03.370Z,100979.83
2018-02-05T01:26:30.835Z,100984.66
2018-02-05T01:28:58.322Z,100981.83
2018-02-05T01:31:25.800Z,100992.59
2018-02-05T01:33:53.287Z,100993.65
2018-02-05T01:36:20.766Z,100992.00
2018-02-05T01:38:48.255Z,100997.08
2018-02-05T01:41:15.719Z,100997.39
2018-02-05T01:43:43.227Z,100986.37
2018-02-05T01:46:10.696Z,100992.83
2018-02-05T01:48:38.182Z,100992.03
2018-02-05T01:51:05.653Z,100989.05
2018-02-05T01:53:33.151Z,100986.05
2018-02-05T01:56:01.070Z,100981.08
2018-02-05T01:58:28.607Z,100981.61
2018-02-05T02:00:56.077Z,100981.26
2018-02-05T02:03:23.546Z,100979.61
2018-02-05T02:05:51.047Z,100983.25
2018-02-05T02:08:18.523Z,100991.28
2018-02-05T02:10:46.019Z,100979.83
2018-02-05T02:13:13.495Z,100975.88
2018-02-05T02:15:40.986Z,100981.22
2018-02-05T02:18:08.450Z,100971.95
2018-02-05T02:20:35.938Z,100979.36
2018-02-05T02:23:03.407Z,100971.30
2018-02-05T02:25:30.892Z,100974.91
2018-02-05T02:27:58.354Z,100969.66
2018-02-05T02:30:25.830Z,100976.48
2018-02-05T02:32:53.292Z,100973.41
2018-02-05T02:35:20.767Z,100969.76
2018-02-05T02:37:48.231Z,100966.33
2018-02-05T02:40:15.711Z,100972.00
2018-02-05T02:42:43.169Z,100971.34
2018-02-05T02:45:10.655Z,100975.86
2018-02-05T02:47:38.118Z,100973.62
2018-02-05T02:50:05.595Z,100986.45
2018-02-05T02:52:33.056Z,100982.20
2018-02-05T02:55:00.543Z,100978.03
2018-02-05T02:57:28.042Z,100968.11
2018-02-05T02:59:55.527Z,100971.69
2018-02-05T03:02:22.990Z,100967.02
2018-02-05T03:04:50.462Z,100973.38
2018-02-05T03:07:17.928Z,100968.36
2018-02-05T03:09:45.426Z,100969.83
2018-02-05T03:12:12.886Z,100968.84
2018-02-05T03:14:40.361Z,100964.57
2018-02-05T03:17:07.885Z,100967.90
2018-02-05T03:19:35.370Z,100974.49
2018-02-05T03:22:02.825Z,100974.56
2018-02-05T03:24:30.305Z,100970.42
2018-02-05T03:26:57.786Z,100971.16
2018-02-05T03:29:25.243Z,100974.35
2018-02-05T03:31:52.723Z,100971.09
2018-02-05T03:34:20.190Z,100980.34
2018-02-05T03:36:47.666Z,100975.52
2018-02-05T03:39:15.124Z,100985.09
2018-02-05T03:41:42.598Z,100983.75
2018-02-05T03:44:10.059Z,100985.61
2018-02-05T03:46:37.546Z,100986.34
2018-02-05T03:49:05.015Z,100985.58
2018-02-05T03:51:32.494Z,100988.52
2018-02-05T03:53:59.952Z,100989.33
2018-02-05T03:56:27.430Z,100991.38
2018-02-05T03:58:54.890Z,100987.77
2018-02-05T04:01:22.370Z,100982.44
2018-02-05T04:03:49.841Z,100988.78
2018-02-05T04:06:17.331Z,100985.77
2018-02-05T04:08:44.795Z,100994.25
2018-02-05T04:11:12.270Z,100998.60
2018-02-05T04:13:39.736Z,100992.11
2018-02-05T04:16:07.216Z,100998.47
2018-02-05T04:18:34.684Z,100998.72
2018-02-05T04:21:02.167Z,101009.55
2018-02-05T04:23:29.622Z,101004.72
2018-02-05T04:25:57.111Z,101007.25
2018-02-05T04:28:24.571Z,101011.31
2018-02-05T04:30:52.054Z,101005.00
2018-02-05T04:33:19.539Z,101005.92
2018-02-05T04:35:47.015Z,101008.16
2018-02-05T04:38:14.475Z,101004.02
2018-02-05T04:40:41.951Z,101010.45
2018-02-05T04:43:09.406Z,101015.61
2018-02-05T04:45:36.892Z,101010.02
2018-02-05T04:48:04.368Z,101018.52
2018-02-05T04:50:31.822Z,101012.34
2018-02-05T04:52:59.307Z,101010.94
2018-02-05T04:55:26.770Z,101020.09
2018-02-05T04:57:54.248Z,101017.84
2018-02-05T05:00:21.735Z,101020.69
2018-02-05T05:02:49.207Z,101014.38
2018-02-05T05:05:16.671Z,101013.78
2018-02-05T05:07:44.146Z,101017.53
2018-02-05T05:10:11.602Z,101023.95
2018-02-05T05:12:39.074Z,101011.11
2018-02-05T05:15:06.530Z,101018.94
2018-02-05T05:17:34.002Z,101016.09
2018-02-05T05:20:01.459Z,101022.09
2018-02-05T05:22:28.934Z,101023.28
2018-02-05T05:24:56.389Z,101020.20
2018-02-05T05:27:23.876Z,101023.18
2018-02-05T05:29:51.344Z,101022.94
2018-02-05T05:32:18.827Z,101021.95
2018-02-05T05:34:46.282Z,101027.84
2018-02-05T05:37:13.770Z,101025.78
2018-02-05T05:39:41.222Z,101029.11
2018-02-05T05:42:08.714Z,101034.38
2018-02-05T05:44:36.174Z,101035.78
2018-02-05T05:47:03.650Z,101032.45
2018-02-05T05:49:31.107Z,101040.09
2018-02-05T05:51:58.591Z,101038.86
2018-02-05T05:54:26.071Z,101036.52
2018-02-05T05:56:53.555Z,101043.67
2018-02-05T05:59:21.024Z,101042.33
2018-02-05T06:01:48.511Z,101042.27
2018-02-05T06:04:15.975Z,101038.27
2018-02-05T06:06:43.468Z,101041.35
2018-02-05T06:09:10.935Z,101041.25
2018-02-05T06:11:38.403Z,101048.02
2018-02-05T06:14:05.879Z,101057.59
2018-02-05T06:16:33.339Z,101054.69
2018-02-05T06:19:00.819Z,101053.28
2018-02-05T06:21:28.285Z,101067.41
2018-02-05T06:23:55.775Z,101066.75
2018-02-05T06:26:23.239Z,101071.59
2018-02-05T06:28:50.719Z,101069.10
2018-02-05T06:31:18.171Z,101072.68
2018-02-05T06:33:45.642Z,101074.93
2018-02-05T06:36:13.115Z,101078.86
2018-02-05T06:38:40.600Z,101073.11
2018-02-05T06:41:08.057Z,101076.44
2018-02-05T06:43:35.539Z,101081.84
2018-02-05T06:46:03.004Z,101076.02
2018-02-05T06:48:30.474Z,101073.59
2018-02-05T06:51:09.763Z,101079.17
2018-02-05T06:53:48.944Z,101082.86
2018-02-05T06:56:24.266Z,101089.95
2018-02-05T06:58:51.747Z,101084.51
2018-02-05T07:01:19.210Z,101084.75
2018-02-05T07:03:46.687Z,101089.53
2018-02-05T07:06:14.478Z,101081.16
2018-02-05T07:08:41.973Z,101087.05
2018-02-05T07:11:09.443Z,101090.78
2018-02-05T07:13:36.928Z,101089.70
2018-02-05T07:16:04.404Z,101087.66
2018-02-05T07:18:31.887Z,101092.43
2018-02-05T07:20:59.347Z,101099.14
2018-02-05T07:23:26.826Z,101096.45
2018-02-05T07:25:54.295Z,101096.09
2018-02-05T07:28:21.775Z,101097.41
2018-02-05T07:30:49.242Z,101090.91
2018-02-05T07:33:16.735Z,101094.30
2018-02-05T07:35:44.211Z,101092.84
2018-02-05T07:38:11.702Z,101092.78
2018-02-05T07:40:39.179Z,101088.30
2018-02-05T07:43:06.676Z,101093.33
2018-02-05T07:45:34.147Z,101090.09
2018-02-05T07:48:01.615Z,101093.17
2018-02-05T07:50:29.104Z,101088.64
2018-02-05T07:52:56.571Z,101091.39
2018-02-05T07:55:24.069Z,101090.19
2018-02-05T07:57:51.546Z,101090.30
2018-02-05T08:00:19.027Z,101087.23
2018-02-05T08:02:46.497Z,101091.36
2018-02-05T08:05:13.980Z,101096.58
2018-02-05T08:07:41.442Z,101101.62
2018-02-05T08:10:08.923Z,101106.15
2018-02-05T08:12:36.396Z,101102.30
2018-02-05T08:15:03.877Z,101110.17
2018-02-05T08:17:31.350Z,101107.45
2018-02-05T08:19:58.907Z,101114.92
2018-02-05T08:22:26.370Z,101110.12
2018-02-05T08:24:53.859Z,101108.55
2018-02-05T08:27:21.318Z,101106.30
2018-02-05T08:29:48.811Z,101112.24
2018-02-05T08:32:16.273Z,101112.66
2018-02-05T08:34:43.749Z,101111.41
2018-02-05T08:37:11.199Z,101105.69
2018-02-05T08:39:38.680Z,101109.52
2018-02-05T08:42:06.142Z,101104.11
2018-02-05T08:44:33.614Z,101102.53
2018-02-05T08:47:01.074Z,101104.45
2018-02-05T08:49:28.554Z,101105.72
2018-02-05T08:51:56.016Z,101106.30
2018-02-05T08:54:23.494Z,101102.32
2018-02-05T08:56:50.950Z,101104.65
2018-02-05T08:59:18.431Z,101101.41
2018-02-05T09:01:45.891Z,101106.05
2018-02-05T09:04:13.358Z,101109.41
2018-02-05T09:06:40.820Z,101108.74
2018-02-05T09:09:08.283Z,101106.06
2018-02-05T09:11:35.763Z,101103.48
2018-02-05T09:14:03.222Z,101100.14
2018-02-05T09:16:30.707Z,101091.37
2018-02-05T09:18:58.171Z,101092.45
2018-02-05T09:21:25.642Z,101089.70
2018-02-05T09:23:53.110Z,101089.72
2018-02-05T09:26:20.592Z,101087.04
2018-02-05T09:28:48.055Z,101088.28
2018-02-05T09:31:15.531Z,101088.25
2018-02-05T09:33:42.996Z,101090.25
2018-02-05T09:36:10.471Z,101100.00
2018-02-05T09:38:37.950Z,101093.71
2018-02-05T09:41:05.439Z,101090.72
2018-02-05T09:43:33.357Z,101097.30
2018-02-05T09:46:00.866Z,101091.60
2018-02-05T09:48:28.328Z,101097.94
2018-02-05T09:50:55.820Z,101095.77
2018-02-05T09:53:23.283Z,101084.72
2018-02-05T09:55:50.762Z,101091.66
2018-02-05T09:58:18.221Z,101086.00
2018-02-05T10:00:47.690Z,101085.14
2018-02-05T10:03:15.151Z,101084.29
2018-02-05T10:05:42.634Z,101083.56
2018-02-05T10:08:10.086Z,101083.46
2018-02-05T10:10:37.575Z,101082.55
2018-02-05T10:13:05.039Z,101080.05
2018-02-05T10:15:32.513Z,101083.10
2018-02-05T10:17:59.970Z,101080.41
2018-02-05T10:20:27.446Z,101080.53
2018-02-05T10:25:23.146Z,101078.33
2018-02-05T10:27:50.602Z,101078.63
2018-02-05T10:30:18.080Z,101068.50
2018-02-05T10:32:45.543Z,101063.20
2018-02-05T10:35:13.042Z,101065.05
2018-02-05T10:37:40.531Z,101056.42
2018-02-05T10:40:07.987Z,101051.30
2018-02-05T10:42:35.466Z,101055.66
2018-02-05T10:45:02.932Z,101050.20
2018-02-05T10:47:30.410Z,101054.37
2018-02-05T10:49:57.878Z,101050.69
2018-02-05T10:52:25.352Z,101057.16
2018-02-05T10:54:52.811Z,101054.55
2018-02-05T10:57:20.287Z,101047.96
2018-02-05T10:59:47.749Z,101047.42
2018-02-05T11:02:15.754Z,101046.47
2018-02-05T11:04:43.222Z,101043.08
2018-02-05T11:07:10.702Z,101047.92
2018-02-05T11:09:38.155Z,101046.30
2018-02-05T11:12:05.635Z,101039.50
2018-02-05T11:14:33.096Z,101040.19
2018-02-05T11:17:00.580Z,101044.41
2018-02-05T11:19:28.046Z,101043.11
2018-02-05T11:21:55.546Z,101037.13
2018-02-05T11:24:23.023Z,101029.03
2018-02-05T11:26:50.524Z,101025.08
2018-02-05T11:29:17.990Z,101027.23
2018-02-05T11:31:45.475Z,101020.66
2018-02-05T11:34:13.007Z,101016.30
2018-02-05T11:36:40.487Z,101016.98
2018-02-05T11:41:34.787Z,101006.52
2018-02-05T11:44:02.251Z,100995.54
2018-02-05T11:46:29.732Z,100998.31
2018-02-05T11:48:57.193Z,100999.06
2018-02-05T11:51:24.691Z,100994.97
2018-02-05T11:53:52.151Z,100995.26
2018-02-05T11:56:19.630Z,100988.41
2018-02-05T11:58:47.086Z,100983.67
2018-02-05T12:01:14.546Z,100982.42
2018-02-05T12:03:42.046Z,100968.28
2018-02-05T12:06:09.535Z,100963.98
2018-02-05T12:08:37.343Z,100967.28
2018-02-05T12:11:04.806Z,100971.20
2018-02-05T12:13:32.288Z,100957.16
2018-02-05T12:15:59.756Z,100954.38
2018-02-05T12:18:27.231Z,100952.16
2018-02-05T12:20:54.691Z,100951.63
2018-02-05T12:23:22.174Z,100949.17
2018-02-05T12:25:49.635Z,100948.22
2018-02-05T12:28:17.106Z,100943.14
2018-02-05T12:30:44.567Z,100941.26
2018-02-05T12:33:12.955Z,100939.41
2018-02-05T12:35:40.448Z,100946.38
2018-02-05T12:38:07.919Z,100932.23
2018-02-05T12:40:35.375Z,100935.88
2018-02-05T12:43:02.858Z,100928.79
2018-02-05T12:45:30.323Z,100927.99
2018-02-05T12:47:57.807Z,100921.95
2018-02-05T12:50:25.271Z,100914.86
2018-02-05T12:52:52.755Z,100914.22
2018-02-05T12:55:20.209Z,100907.08
2018-02-05T12:57:47.688Z,100907.50
2018-02-05T13:03:41.862Z,100911.83
2018-02-05T13:06:09.711Z,100906.66
2018-02-05T13:08:37.187Z,100903.92
2018-02-05T13:11:04.753Z,100900.92
2018-02-05T13:13:32.228Z,100895.33
2018-02-05T13:15:59.688Z,100889.34
2018-02-05T13:18:27.227Z,100880.86
2018-02-05T13:20:54.643Z,100882.16
2018-02-05T13:23:22.116Z,100886.23
2018-02-05T13:25:49.575Z,100880.84
2018-02-05T13:28:17.057Z,100882.64
2018-02-05T13:30:44.515Z,100881.73
2018-02-05T13:33:11.994Z,100878.24
2018-02-05T13:35:39.619Z,100874.48
2018-02-05T13:38:07.887Z,100864.52
2018-02-05T13:40:35.353Z,100861.66
2018-02-05T13:43:02.842Z,100856.10
2018-02-05T13:45:30.300Z,100855.16
2018-02-05T13:47:57.775Z,100857.01
2018-02-05T13:50:25.223Z,100860.85
2018-02-05T13:52:52.719Z,100854.02
2018-02-05T13:55:20.207Z,100854.84
2018-02-05T13:57:47.691Z,100846.98
2018-02-05T14:00:15.867Z,100851.37
2018-02-05T14:02:43.323Z,100852.03
2018-02-05T14:05:10.829Z,100858.76
2018-02-05T14:07:38.274Z,100847.95
2018-02-05T14:10:05.744Z,100844.30
2018-02-05T14:12:33.201Z,100850.05
2018-02-05T14:15:00.676Z,100850.63
2018-02-05T14:17:28.134Z,100847.53
2018-02-05T14:19:55.611Z,100849.38
2018-02-05T14:22:23.121Z,100844.22
2018-02-05T14:24:50.618Z,100837.39
2018-02-05T14:27:18.086Z,100836.39
2018-02-05T14:29:45.587Z,100836.86
2018-02-05T14:32:13.042Z,100835.86
2018-02-05T14:34:40.531Z,100837.59
2018-02-05T14:37:07.989Z,100836.37
2018-02-05T14:39:35.481Z,100834.35
2018-02-05T14:42:02.941Z,100832.10
2018-02-05T14:44:30.423Z,100828.00
2018-02-05T14:46:57.882Z,100828.42
2018-02-05T14:49:25.363Z,100825.07
2018-02-05T14:51:52.815Z,100831.70
2018-02-05T14:54:20.298Z,100819.77
2018-02-05T14:56:47.762Z,100816.41
2018-02-05T14:59:15.250Z,100817.75
2018-02-05T15:01:42.707Z,100809.14
2018-02-05T15:04:10.191Z,100811.74
2018-02-05T15:06:37.644Z,100807.50
2018-02-05T15:09:05.116Z,100801.30
2018-02-05T15:11:32.575Z,100805.17
2018-02-05T15:14:00.086Z,100798.02
2018-02-05T15:16:27.531Z,100796.42
2018-02-05T15:18:55.012Z,100795.69
2018-02-05T15:21:22.470Z,100784.11
2018-02-05T15:23:49.990Z,100787.62
2018-02-05T15:26:17.458Z,100784.11
2018-02-05T15:28:44.910Z,100784.52
2018-02-05T15:31:12.379Z,100786.47
2018-02-05T15:33:39.855Z,100777.91
2018-02-05T15:36:07.413Z,100776.31
2018-02-05T15:38:34.862Z,100775.00
2018-02-05T15:41:02.338Z,100767.83
2018-02-05T15:43:29.795Z,100769.50
2018-02-05T15:45:57.280Z,100766.33
2018-02-05T15:48:24.735Z,100769.77
2018-02-05T15:50:52.215Z,100766.73
2018-02-05T15:53:19.668Z,100774.98
2018-02-05T15:55:47.378Z,100769.63
2018-02-05T15:58:14.826Z,100758.04
2018-02-05T16:00:42.304Z,100774.91
2018-02-05T16:03:09.755Z,100783.33
2018-02-05T16:05:37.240Z,100774.50
2018-02-05T16:08:04.691Z,100776.05
2018-02-05T16:10:32.167Z,100769.01
2018-02-05T16:12:59.630Z,100765.66
2018-02-05T16:15:27.110Z,100761.48
2018-02-05T16:17:54.566Z,100767.14
2018-02-05T16:20:22.071Z,100762.98
2018-02-05T16:22:49.527Z,100761.01
2018-02-05T16:25:16.994Z,100757.91
2018-02-05T16:27:44.455Z,100759.11
2018-02-05T16:30:11.927Z,100753.64
2018-02-05T16:32:39.379Z,100750.03
2018-02-05T16:35:06.863Z,100748.01
2018-02-05T16:37:34.326Z,100747.47
2018-02-05T16:40:01.807Z,100743.62
2018-02-05T16:42:29.271Z,100740.70
2018-02-05T16:44:56.763Z,100742.08
2018-02-05T16:47:24.223Z,100754.03
2018-02-05T16:49:51.746Z,100747.92
2018-02-05T16:52:19.203Z,100751.52
2018-02-05T16:54:46.658Z,100754.72
2018-02-05T16:57:14.128Z,100747.83
2018-02-05T16:59:41.585Z,100755.44
2018-02-05T17:02:09.060Z,100764.22
2018-02-05T17:04:36.506Z,100763.33
2018-02-05T17:07:03.978Z,100758.04
2018-02-05T17:09:31.431Z,100762.78
2018-02-05T17:11:58.903Z,100763.00
2018-02-05T17:14:26.371Z,100762.70
2018-02-05T17:16:53.851Z,100757.52
2018-02-05T17:19:21.308Z,100756.56
2018-02-05T17:21:48.792Z,100761.41
2018-02-05T17:24:16.262Z,100758.81
2018-02-05T17:26:43.747Z,100763.73
2018-02-05T17:29:11.203Z,100763.39
2018-02-05T17:31:38.675Z,100766.25
2018-02-05T17:34:06.140Z,100768.97
2018-02-05T17:36:33.623Z,100776.02
2018-02-05T17:39:01.074Z,100780.91
2018-02-05T17:41:28.555Z,100777.61
2018-02-05T17:43:56.015Z,100776.23
2018-02-05T17:46:23.499Z,100775.86
2018-02-05T17:48:50.963Z,100779.21
2018-02-05T17:51:18.435Z,100773.78
2018-02-05T17:53:45.890Z,100771.09
2018-02-05T17:56:13.366Z,100769.73
2018-02-05T17:58:40.818Z,100761.41
2018-02-05T18:01:08.299Z,100760.30
2018-02-05T18:03:35.753Z,100759.80
2018-02-05T18:06:03.243Z,100766.09
2018-02-05T18:08:30.700Z,100760.72
2018-02-05T18:10:58.182Z,100764.20
2018-02-05T18:13:25.635Z,100763.03
2018-02-05T18:15:53.118Z,100758.23
2018-02-05T18:18:20.578Z,100758.21
2018-02-05T18:20:48.042Z,100762.40
2018-02-05T18:23:15.530Z,100753.27
2018-02-05T18:25:42.987Z,100751.06
2018-02-05T18:28:10.462Z,100752.04
2018-02-05T18:30:37.931Z,100749.81
2018-02-05T18:33:05.411Z,100752.84
2018-02-05T18:35:32.891Z,100756.91
2018-02-05T18:38:00.367Z,100761.50
2018-02-05T18:40:27.834Z,100758.77
2018-02-05T18:42:55.311Z,100759.14
2018-02-05T18:45:22.778Z,100759.53
2018-02-05T18:47:50.497Z,100754.30
2018-02-05T18:50:17.974Z,100749.06
2018-02-05T18:52:45.463Z,100746.20
2018-02-05T18:55:12.964Z,100754.05
2018-02-05T18:57:40.443Z,100752.63
2018-02-05T19:00:19.896Z,100749.72
2018-02-05T19:02:47.384Z,100748.05
2018-02-05T19:05:14.852Z,100739.03
2018-02-05T19:07:43.277Z,100731.06
2018-02-05T19:10:10.792Z,100732.06
2018-02-05T19:12:38.325Z,100721.37
2018-02-05T19:15:05.783Z,100726.33
2018-02-05T19:17:33.258Z,100730.78
2018-02-05T19:20:00.714Z,100727.20
2018-02-05T19:22:28.649Z,100729.55
2018-02-05T19:24:56.130Z,100724.80
2018-02-05T19:27:23.623Z,100732.06
2018-02-05T19:29:51.091Z,100728.98
2018-02-05T19:32:18.568Z,100731.66
2018-02-05T19:34:46.064Z,100727.56
2018-02-05T19:37:13.524Z,100729.32
2018-02-05T19:39:41.031Z,100725.27
2018-02-05T19:42:08.498Z,100729.36
2018-02-05T19:44:35.979Z,100730.52
2018-02-05T19:47:03.451Z,100730.42
2018-02-05T19:49:30.947Z,100730.52
2018-02-05T19:51:58.424Z,100733.17
2018-02-05T19:54:25.919Z,100739.25
2018-02-05T19:56:53.384Z,100735.92
2018-02-05T19:59:20.872Z,100738.10
2018-02-05T20:01:48.351Z,100741.02
2018-02-05T20:04:15.839Z,100739.34
2018-02-05T20:06:43.307Z,100737.48
2018-02-05T20:09:10.794Z,100737.91
2018-02-05T20:11:38.259Z,100735.32
2018-02-05T20:14:05.750Z,100739.06
2018-02-05T20:16:33.211Z,100736.16
2018-02-05T20:19:00.700Z,100736.16
2018-02-05T20:21:28.168Z,100736.23
2018-02-05T20:23:55.660Z,100731.81
2018-02-05T20:26:23.122Z,100734.80
2018-02-05T20:28:50.617Z,100735.39
2018-02-05T20:31:18.084Z,100740.81
2018-02-05T20:33:45.570Z,100744.14
2018-02-05T20:36:13.030Z,100742.64
2018-02-05T20:38:40.519Z,100735.07
2018-02-05T20:41:07.995Z,100738.75
2018-02-05T20:43:35.474Z,100737.66
2018-02-05T20:46:02.952Z,100745.30
2018-02-05T20:48:30.441Z,100750.69
2018-02-05T20:50:57.911Z,100754.20
2018-02-05T20:53:25.411Z,100754.86
2018-02-05T20:55:52.886Z,100757.17
2018-02-05T20:58:20.360Z,100749.01
2018-02-05T21:00:47.842Z,100746.70
2018-02-05T21:03:15.315Z,100747.02
2018-02-05T21:05:42.806Z,100741.83
2018-02-05T21:08:10.290Z,100738.92
2018-02-05T21:10:37.778Z,100730.73
2018-02-05T21:13:05.254Z,100724.08
2018-02-05T21:15:32.735Z,100714.42
2018-02-05T21:18:00.199Z,100711.86
2018-02-05T21:20:27.686Z,100706.78
2018-02-05T21:22:55.155Z,100701.22
2018-02-05T21:25:22.635Z,100702.30
2018-02-05T21:27:50.102Z,100700.23
2018-02-05T21:30:17.589Z,100702.13
2018-02-05T21:32:45.050Z,100694.80
2018-02-05T21:35:12.535Z,100700.73
2018-02-05T21:37:40.005Z,100706.30
2018-02-05T21:40:07.507Z,100700.55
2018-02-05T21:42:34.991Z,100692.39
2018-02-05T21:45:02.470Z,100694.05
2018-02-05T21:47:29.938Z,100689.80
2018-02-05T21:49:57.423Z,100682.52
2018-02-05T21:52:24.892Z,100683.67
2018-02-05T21:54:52.374Z,100676.33
2018-02-05T21:57:19.845Z,100668.77
2018-02-05T21:59:47.322Z,100671.67
2018-02-05T22:02:14.790Z,100670.77
2018-02-05T22:04:42.279Z,100668.84
2018-02-05T22:07:09.754Z,100668.84
2018-02-05T22:09:37.239Z,100664.99
2018-02-05T22:12:04.708Z,100664.92
2018-02-05T22:14:32.194Z,100663.34
2018-02-05T22:16:59.679Z,100657.85
2018-02-05T22:19:27.146Z,100661.25
2018-02-05T22:21:54.639Z,100657.22
2018-02-05T22:24:22.457Z,100659.62
2018-02-05T22:26:49.938Z,100662.11
2018-02-05T22:29:17.403Z,100650.39
2018-02-05T22:31:46.787Z,100645.55
2018-02-05T22:34:14.276Z,100648.32
2018-02-05T22:36:41.761Z,100644.05
2018-02-05T22:39:11.350Z,100641.50
2018-02-05T22:41:58.826Z,100636.67
2018-02-05T22:44:26.308Z,100630.13
2018-02-05T22:46:53.793Z,100620.23
2018-02-05T22:51:55.114Z,100616.14
2018-02-05T22:54:22.574Z,100617.33
2018-02-05T22:56:50.059Z,100614.18
2018-02-05T22:59:17.528Z,100601.97
2018-02-05T23:01:45.023Z,100596.66
2018-02-05T23:04:12.498Z,100599.04
2018-02-05T23:06:39.980Z,100599.35
2018-02-05T23:09:07.451Z,100597.28
2018-02-05T23:11:34.940Z,100597.03
2018-02-05T23:14:02.419Z,100588.19
2018-02-05T23:16:29.908Z,100586.18
2018-02-05T23:18:57.371Z,100580.38
2018-02-05T23:21:24.867Z,100576.08
2018-02-05T23:24:12.814Z,100567.27
2018-02-05T23:26:40.308Z,100568.01
2018-02-05T23:29:07.776Z,100566.75
2018-02-05T23:31:35.260Z,100560.70
2018-02-05T23:34:02.730Z,100555.13
2018-02-05T23:36:30.219Z,100558.70
2018-02-05T23:38:57.687Z,100545.24
2018-02-05T23:41:25.168Z,100542.76
2018-02-05T23:43:52.630Z,100538.53
2018-02-05T23:46:20.115Z,100538.11
2018-02-05T23:48:47.675Z,100532.76
2018-02-05T23:51:15.165Z,100532.94
2018-02-05T23:53:42.642Z,100524.55
2018-02-05T23:56:10.136Z,100517.91
2018-02-05T23:58:37.614Z,100514.51
